Time,TemperatureF,DewpointF,PressureIn,WindDirection,WindDirectionDegrees,WindSpeedMPH,WindSpeedGustMPH,Humidity,HourlyPrecipIn,Conditions,Clouds,dailyrainin,SoftwareType,DateUTC
2013-01-21 00:04:00,42.2,36.0,30.18,SW,230,0.0,1.0,78,0.00,,,0.00,weatherlink.com 1.10,2013-01-21 08:04:00,
2013-01-21 00:19:00,42.7,36.0,30.17,SW,230,0.0,1.0,77,0.00,,,0.00,weatherlink.com 1.10,2013-01-21 08:19:00,
2013-01-21 00:34:00,43.3,36.0,30.16,SW,230,0.0,0.0,75,0.00,,,0.00,weatherlink.com 1.10,2013-01-21 08:34:00,
2013-01-21 00:49:00,42.6,36.0,30.16,SW,230,0.0,1.0,76,0.00,,,0.00,weatherlink.com 1.10,2013-01-21 08:49:00,
2013-01-21 01:04:00,41.5,35.0,30.16,SW,230,0.0,1.0,78,0.00,,,0.00,weatherlink.com 1.10,2013-01-21 09:04:00,
2013-01-21 01:19:00,41.3,35.0,30.16,SW,230,0.0,1.0,78,0.00,,,0.00,weatherlink.com 1.10,2013-01-21 09:19:00,
2013-01-21 01:34:00,41.6,35.0,30.16,SW,230,0.0,1.0,78,0.00,,,0.00,weatherlink.com 1.10,2013-01-21 09:34:00,
2013-01-21 01:49:00,41.7,35.0,30.16,SW,230,0.0,1.0,78,0.00,,,0.00,weatherlink.com 1.10,2013-01-21 09:49:00,
2013-01-21 02:04:00,41.7,35.0,30.16,SW,230,0.0,1.0,78,0.00,,,0.00,weatherlink.com 1.10,2013-01-21 10:04:00,
2013-01-21 02:19:00,41.5,35.0,30.16,SW,230,0.0,1.0,78,0.00,,,0.00,weatherlink.com 1.10,2013-01-21 10:19:00,
2013-01-21 02:35:00,41.3,35.0,30.15,SW,230,0.0,1.0,77,0.00,,,0.00,weatherlink.com 1.10,2013-01-21 10:35:00,
2013-01-21 02:50:00,43.5,33.0,30.15,SW,230,0.0,1.0,67,0.00,,,0.00,weatherlink.com 1.10,2013-01-21 10:50:00,
2013-01-21 03:05:00,42.8,35.0,30.15,SW,230,0.0,1.0,73,0.00,,,0.00,weatherlink.com 1.10,2013-01-21 11:05:00,
2013-01-21 03:20:00,42.2,34.0,30.14,SW,230,0.0,1.0,74,0.00,,,0.00,weatherlink.com 1.10,2013-01-21 11:20:00,
2013-01-21 03:35:00,42.0,34.0,30.14,SW,230,0.0,1.0,74,0.00,,,0.00,weatherlink.com 1.10,2013-01-21 11:35:00,
2013-01-21 03:50:00,41.8,34.0,30.14,WSW,246,0.0,1.0,74,0.00,,,0.00,weatherlink.com 1.10,2013-01-21 11:50:00,
2013-01-21 04:05:00,41.5,34.0,30.14,WSW,246,0.0,1.0,75,0.00,,,0.00,weatherlink.com 1.10,2013-01-21 12:05:00,
2013-01-21 04:20:00,41.8,33.0,30.14,WSW,246,0.0,1.0,72,0.00,,,0.00,weatherlink.com 1.10,2013-01-21 12:20:00,
2013-01-21 04:35:00,42.0,33.0,30.13,SW,235,0.0,1.0,70,0.00,,,0.00,weatherlink.com 1.10,2013-01-21 12:35:00,
2013-01-21 04:50:00,42.9,33.0,30.13,West,263,0.0,2.0,69,0.00,,,0.00,weatherlink.com 1.10,2013-01-21 12:50:00,
2013-01-21 05:05:00,42.9,31.0,30.12,West,263,0.0,2.0,63,0.00,,,0.00,weatherlink.com 1.10,2013-01-21 13:05:00,
2013-01-21 05:20:00,43.9,31.0,30.11,West,263,0.0,2.0,60,0.00,,,0.00,weatherlink.com 1.10,2013-01-21 13:20:00,
2013-01-21 05:35:00,44.5,30.0,30.11,West,271,0.0,3.0,57,0.00,,,0.00,weatherlink.com 1.10,2013-01-21 13:35:00,
2013-01-21 05:50:00,44.2,31.0,30.11,West,273,0.0,1.0,60,0.00,,,0.00,weatherlink.com 1.10,2013-01-21 13:50:00,
2013-01-21 06:05:00,43.6,31.0,30.11,West,273,0.0,2.0,61,0.00,,,0.00,weatherlink.com 1.10,2013-01-21 14:05:00,
2013-01-21 06:20:00,43.3,31.0,30.12,West,273,0.0,1.0,62,0.00,,,0.00,weatherlink.com 1.10,2013-01-21 14:20:00,
2013-01-21 06:35:00,43.5,30.0,30.12,West,273,0.0,1.0,60,0.00,,,0.00,weatherlink.com 1.10,2013-01-21 14:35:00,
2013-01-21 06:50:00,43.6,30.0,30.13,West,273,1.0,1.0,59,0.00,,,0.00,weatherlink.com 1.10,2013-01-21 14:50:00,
2013-01-21 07:05:00,43.2,30.0,30.13,West,273,0.0,1.0,61,0.00,,,0.00,weatherlink.com 1.10,2013-01-21 15:05:00,
2013-01-21 07:20:00,42.7,29.0,30.13,West,273,0.0,0.0,59,0.00,,,0.00,weatherlink.com 1.10,2013-01-21 15:20:00,
2013-01-21 07:35:00,43.0,29.0,30.14,West,273,0.0,0.0,57,0.00,,,0.00,weatherlink.com 1.10,2013-01-21 15:35:00,
2013-01-21 07:50:00,44.2,28.0,30.14,West,273,0.0,0.0,54,0.00,,,0.00,weatherlink.com 1.10,2013-01-21 15:50:00,
2013-01-21 08:05:00,43.2,32.0,30.15,SSW,204,2.0,4.0,66,0.00,,,0.00,weatherlink.com 1.10,2013-01-21 16:05:00,
2013-01-21 08:20:00,41.4,34.0,30.16,SW,226,0.0,4.0,74,0.00,,,0.00,weatherlink.com 1.10,2013-01-21 16:20:00,
2013-01-21 08:35:00,42.5,34.0,30.16,SSW,204,2.0,4.0,73,0.00,,,0.00,weatherlink.com 1.10,2013-01-21 16:35:00,
2013-01-21 08:50:00,43.5,34.0,30.16,South,190,3.0,4.0,70,0.00,,,0.00,weatherlink.com 1.10,2013-01-21 16:50:00,
2013-01-21 09:05:00,43.8,35.0,30.17,South,190,4.0,5.0,71,0.00,,,0.00,weatherlink.com 1.10,2013-01-21 17:05:00,
2013-01-21 09:20:00,44.4,35.0,30.17,SSW,194,2.0,5.0,69,0.00,,,0.00,weatherlink.com 1.10,2013-01-21 17:20:00,
2013-01-21 09:35:00,45.2,35.0,30.18,SSW,194,3.0,4.0,68,0.00,,,0.00,weatherlink.com 1.10,2013-01-21 17:35:00,
2013-01-21 09:50:00,46.5,35.0,30.18,South,186,3.0,4.0,65,0.00,,,0.00,weatherlink.com 1.10,2013-01-21 17:50:00,
2013-01-21 10:05:00,48.4,37.0,30.18,South,191,2.0,4.0,64,0.00,,,0.00,weatherlink.com 1.10,2013-01-21 18:05:00,
2013-01-21 10:20:00,51.3,37.0,30.18,South,191,0.0,2.0,59,0.00,,,0.00,weatherlink.com 1.10,2013-01-21 18:20:00,
2013-01-21 10:35:00,55.0,39.0,30.18,South,191,1.0,3.0,56,0.00,,,0.00,weatherlink.com 1.10,2013-01-21 18:35:00,
2013-01-21 10:50:00,55.0,40.0,30.19,South,191,2.0,3.0,58,0.00,,,0.00,weatherlink.com 1.10,2013-01-21 18:50:00,
2013-01-21 11:06:00,54.8,41.0,30.18,SW,222,1.0,4.0,59,0.00,,,0.00,weatherlink.com 1.10,2013-01-21 19:06:00,
2013-01-21 11:20:00,55.6,41.0,30.18,South,183,2.0,5.0,58,0.00,,,0.00,weatherlink.com 1.10,2013-01-21 19:20:00,
2013-01-21 11:35:00,57.1,42.0,30.17,SSW,199,2.0,4.0,58,0.00,,,0.00,weatherlink.com 1.10,2013-01-21 19:35:00,
2013-01-21 11:50:00,57.6,42.0,30.16,SW,236,3.0,5.0,57,0.00,,,0.00,weatherlink.com 1.10,2013-01-21 19:50:00,
2013-01-21 12:06:00,58.6,42.0,30.16,SSW,209,2.0,3.0,55,0.00,,,0.00,weatherlink.com 1.10,2013-01-21 20:06:00,
2013-01-21 12:21:00,59.8,42.0,30.15,South,184,1.0,6.0,53,0.00,,,0.00,weatherlink.com 1.10,2013-01-21 20:21:00,
2013-01-21 12:36:00,59.2,42.0,30.15,South,188,5.0,8.0,54,0.00,,,0.00,weatherlink.com 1.10,2013-01-21 20:36:00,
2013-01-21 12:51:00,59.8,43.0,30.15,South,191,4.0,7.0,54,0.00,,,0.00,weatherlink.com 1.10,2013-01-21 20:51:00,
2013-01-21 13:06:00,61.0,41.0,30.15,WSW,238,3.0,6.0,49,0.00,,,0.00,weatherlink.com 1.10,2013-01-21 21:06:00,
2013-01-21 13:21:00,61.5,43.0,30.14,SW,228,1.0,5.0,50,0.00,,,0.00,weatherlink.com 1.10,2013-01-21 21:21:00,
2013-01-21 13:36:00,62.4,42.0,30.13,South,191,0.0,6.0,48,0.00,,,0.00,weatherlink.com 1.10,2013-01-21 21:36:00,
2013-01-21 13:51:00,63.5,43.0,30.12,SSW,199,2.0,4.0,47,0.00,,,0.00,weatherlink.com 1.10,2013-01-21 21:51:00,
2013-01-21 14:06:00,63.8,44.0,30.12,WSW,238,4.0,5.0,48,0.00,,,0.00,weatherlink.com 1.10,2013-01-21 22:06:00,
2013-01-21 14:21:00,64.1,43.0,30.12,SSW,209,3.0,7.0,46,0.00,,,0.00,weatherlink.com 1.10,2013-01-21 22:21:00,
2013-01-21 14:36:00,64.0,44.0,30.12,WSW,237,4.0,6.0,48,0.00,,,0.00,weatherlink.com 1.10,2013-01-21 22:36:00,
2013-01-21 14:51:00,64.0,43.0,30.12,SSW,204,1.0,6.0,46,0.00,,,0.00,weatherlink.com 1.10,2013-01-21 22:51:00,
2013-01-21 15:06:00,63.7,42.0,30.12,SW,214,3.0,6.0,46,0.00,,,0.00,weatherlink.com 1.10,2013-01-21 23:06:00,
2013-01-21 15:21:00,63.4,42.0,30.12,SW,236,3.0,6.0,46,0.00,,,0.00,weatherlink.com 1.10,2013-01-21 23:21:00,
2013-01-21 15:36:00,63.2,41.0,30.12,SW,228,3.0,3.0,45,0.00,,,0.00,weatherlink.com 1.10,2013-01-21 23:36:00,
2013-01-21 15:51:00,62.5,41.0,30.11,South,181,3.0,5.0,45,0.00,,,0.00,weatherlink.com 1.10,2013-01-21 23:51:00,
2013-01-21 16:06:00,62.7,41.0,30.11,WSW,249,1.0,4.0,46,0.00,,,0.00,weatherlink.com 1.10,2013-01-22 00:06:00,
2013-01-21 16:21:00,62.1,40.0,30.11,WSW,241,2.0,3.0,44,0.00,,,0.00,weatherlink.com 1.10,2013-01-22 00:21:00,
2013-01-21 16:36:00,61.7,40.0,30.11,South,184,1.0,3.0,45,0.00,,,0.00,weatherlink.com 1.10,2013-01-22 00:36:00,
2013-01-21 16:51:00,59.0,39.0,30.11,SW,214,0.0,2.0,48,0.00,,,0.00,weatherlink.com 1.10,2013-01-22 00:51:00,
2013-01-21 17:06:00,56.9,39.0,30.10,SW,224,0.0,3.0,51,0.00,,,0.00,weatherlink.com 1.10,2013-01-22 01:06:00,
2013-01-21 17:21:00,55.8,39.0,30.11,WSW,245,0.0,3.0,54,0.00,,,0.00,weatherlink.com 1.10,2013-01-22 01:21:00,
2013-01-21 17:36:00,54.7,40.0,30.11,WSW,245,0.0,3.0,57,0.00,,,0.00,weatherlink.com 1.10,2013-01-22 01:36:00,
2013-01-21 17:51:00,54.4,41.0,30.11,SW,226,0.0,2.0,60,0.00,,,0.00,weatherlink.com 1.10,2013-01-22 01:51:00,
2013-01-21 18:06:00,54.2,41.0,30.11,SW,214,2.0,3.0,62,0.00,,,0.00,weatherlink.com 1.10,2013-01-22 02:06:00,
2013-01-21 18:21:00,53.9,41.0,30.11,SSW,209,0.0,2.0,61,0.00,,,0.00,weatherlink.com 1.10,2013-01-22 02:21:00,
2013-01-21 18:36:00,53.3,40.0,30.11,SSW,209,0.0,2.0,62,0.00,,,0.00,weatherlink.com 1.10,2013-01-22 02:36:00,
2013-01-21 18:51:00,52.8,41.0,30.12,SSW,209,0.0,1.0,64,0.00,,,0.00,weatherlink.com 1.10,2013-01-22 02:51:00,
2013-01-21 19:06:00,51.6,40.0,30.12,SSW,209,0.0,0.0,66,0.00,,,0.00,weatherlink.com 1.10,2013-01-22 03:06:00,
2013-01-21 19:21:00,49.6,40.0,30.12,SSW,209,0.0,0.0,70,0.00,,,0.00,weatherlink.com 1.10,2013-01-22 03:21:00,
2013-01-21 19:36:00,48.6,40.0,30.12,SSW,209,0.0,0.0,72,0.00,,,0.00,weatherlink.com 1.10,2013-01-22 03:36:00,
2013-01-21 19:51:00,48.2,40.0,30.12,SSW,209,0.0,1.0,74,0.00,,,0.00,weatherlink.com 1.10,2013-01-22 03:51:00,
2013-01-21 20:06:00,47.8,40.0,30.12,SSW,209,0.0,1.0,75,0.00,,,0.00,weatherlink.com 1.10,2013-01-22 04:06:00,
2013-01-21 20:21:00,47.3,40.0,30.13,SSW,209,0.0,1.0,77,0.00,,,0.00,weatherlink.com 1.10,2013-01-22 04:21:00,
2013-01-21 20:36:00,46.4,40.0,30.14,SSW,209,0.0,0.0,78,0.00,,,0.00,weatherlink.com 1.10,2013-01-22 04:36:00,
2013-01-21 20:51:00,46.1,40.0,30.14,SSW,209,0.0,0.0,79,0.00,,,0.00,weatherlink.com 1.10,2013-01-22 04:51:00,
2013-01-21 21:06:00,45.6,40.0,30.14,SSW,209,0.0,0.0,81,0.00,,,0.00,weatherlink.com 1.10,2013-01-22 05:06:00,
2013-01-21 21:21:00,44.9,40.0,30.15,SSW,209,0.0,1.0,82,0.00,,,0.00,weatherlink.com 1.10,2013-01-22 05:21:00,
2013-01-21 21:36:00,44.1,39.0,30.15,SSE,167,0.0,1.0,83,0.00,,,0.00,weatherlink.com 1.10,2013-01-22 05:36:00,
2013-01-21 21:51:00,44.0,39.0,30.15,SSE,167,0.0,1.0,83,0.00,,,0.00,weatherlink.com 1.10,2013-01-22 05:51:00,
2013-01-21 22:06:00,44.5,39.0,30.15,SSE,167,0.0,1.0,81,0.00,,,0.00,weatherlink.com 1.10,2013-01-22 06:06:00,
2013-01-21 22:21:00,43.8,39.0,30.14,SSE,167,0.0,1.0,83,0.00,,,0.00,weatherlink.com 1.10,2013-01-22 06:21:00,
2013-01-21 22:36:00,43.7,39.0,30.14,SSE,167,0.0,1.0,82,0.00,,,0.00,weatherlink.com 1.10,2013-01-22 06:36:00,
2013-01-21 22:51:00,43.4,39.0,30.14,SSE,167,0.0,1.0,83,0.00,,,0.00,weatherlink.com 1.10,2013-01-22 06:51:00,
2013-01-21 23:06:00,43.3,39.0,30.14,SSE,167,0.0,1.0,84,0.00,,,0.00,weatherlink.com 1.10,2013-01-22 07:06:00,
2013-01-21 23:21:00,43.0,39.0,30.13,SSE,167,0.0,1.0,84,0.00,,,0.00,weatherlink.com 1.10,2013-01-22 07:21:00,
2013-01-21 23:36:00,43.2,38.0,30.13,SSE,167,0.0,1.0,83,0.00,,,0.00,weatherlink.com 1.10,2013-01-22 07:36:00,
2013-01-21 23:51:00,43.6,38.0,30.12,SSE,167,0.0,1.0,81,0.00,,,0.00,weatherlink.com 1.10,2013-01-22 07:51:00,